Airfield :
LOGIN :

Register | Disclaimer

   EN    FR    IT 

 










Legend :    VFR   Marginal VFR   IFR   Intensive IFR   Very Intensive IFR
Visi :
Ceiling :
>= 8 km
>= 3000ft
5 to 8 km
1000 to 3000 ft
1500m to 5 km
500 to 1000 ft
800 to 1500m
200 to 500 ft
< 800m
< 200 ft
Symbols :   Thunderstorms  Fog  Heavy snow  Heavy precipitations  Wind > 20 kt
SIGMETs :     Misc.  Thunderstorms  Icing  Turbulence  Mountain Waves  Volcanic Ashes







- Airport Elevation : 24 ft
- IATA code : SGD


EKSB - Sonderborg

CURRENT METAR :
  • 211120Z 04004KT 330V110 CAVOK 26/12 Q1012

EXPIRED METARs :
  • 211050Z 04003KT 9999 SCT045 SCT220 25/12 Q1012
  • 211020Z 05004KT 350V100 9999 SCT045 SCT220 24/13 Q1013
  • 210950Z 07005KT 040V110 9999 SCT035 SCT220 24/15 Q1013
  • 210920Z 04004KT CAVOK 23/13 Q1013
  • 210850Z 04003KT CAVOK 23/13 Q1013

TAF TAF EKSB
Valid from the 21 at 12:00 until the 21 at 16:00 UTC


211104Z 2112/2116 VRB05KT CAVOK
No reported NOTAMs for that airfield.



MET'MAP, your aeronautical weather chart ! - Copyright ORBIFLY December 2007 - Disclaimer

ORBIFLY MET'MAP TEAM :

Programming & Development : Alexandra Zaïnal
Concept & Development : Baudouin d'Aumeries
Co-Development & Prog : Marc-Olivier Méhu
Technical & hardware support : Manuel Goepfert

Contact : metmap@orbifly.com




SOURCES & CREDITS :

   NOAA